Terminal Aerodrome Forecast
Issued by NWS

Home | Current Version | Previous Version | Text Only | Print | Product List | Glossary On
Versions: 1 2 3 4 5 6 7 8 9 10 11 12 13 14 15 16 17 18 19
000
FTUS43 KDMX 242321
TAFFOD
TAF
KFOD 242321Z 2500/2524 34015G22KT P6SM SCT009 BKN040 OVC150
      TEMPO 2500/2501 4SM -SN BLSN BKN009
     FM250200 34012G19KT P6SM OVC150
     FM250800 31011KT P6SM SCT200
     FM252300 22005KT P6SM BKN150=

USA.gov is the U.S. government's official web portal to all federal, state and local government web resources and services.